Wetterstation Vordersexau
Wetterdaten: Woche 20.03.17 - 26.03.17 (KW12)
Datum Zeit Temp. A. Feuchte A. Luftdruck Regen Wind Richtung Taupunkt Windchill Windben
20.03.2017 01:00 4,7 C 84 % 1011,7 hPa 1,0 l/m 0,0 km/h N 2,2 C 4,7 C 0,0 km/h
20.03.2017 03:00 4,7 C 84 % 1010,9 hPa 0,0 l/m 0,0 km/h N 2,2 C 4,7 C 0,0 km/h
20.03.2017 04:00 4,5 C 84 % 1010,7 hPa 0,0 l/m 0,0 km/h N 2,0 C 4,5 C 0,0 km/h
20.03.2017 05:00 4,4 C 84 % 1010,8 hPa 0,5 l/m 0,0 km/h N 1,9 C 4,4 C 0,0 km/h
20.03.2017 06:00 4,3 C 84 % 1010,8 hPa 0,5 l/m 0,0 km/h N 1,8 C 4,3 C 0,0 km/h
20.03.2017 07:00 4,2 C 84 % 1010,9 hPa 0,0 l/m 0,0 km/h N 1,7 C 4,2 C 0,0 km/h
20.03.2017 08:00 4,9 C 83 % 1011,0 hPa 0,5 l/m 0,0 km/h N-NW 2,3 C 4,9 C 0,0 km/h
20.03.2017 09:00 5,9 C 84 % 1011,3 hPa 0,0 l/m 0,0 km/h W-NW 3,4 C 5,9 C 0,0 km/h
20.03.2017 10:00 7,0 C 85 % 1011,4 hPa 0,0 l/m 0,0 km/h W-SW 4,7 C 7,0 C 0,0 km/h
20.03.2017 11:00 7,8 C 83 % 1011,4 hPa 0,0 l/m 0,0 km/h W 5,1 C 7,8 C 0,0 km/h
20.03.2017 12:00 8,3 C 80 % 1011,1 hPa 0,0 l/m 0,0 km/h S 5,1 C 8,3 C 0,0 km/h
20.03.2017 13:00 9,1 C 79 % 1010,7 hPa 0,0 l/m 0,0 km/h W-NW 5,7 C 9,1 C 0,0 km/h
20.03.2017 14:00 12,4 C 70 % 1010,6 hPa 0,0 l/m 4,5 km/h W 7,1 C 12,4 C 2,5 km/h
20.03.2017 15:00 9,7 C 74 % 1010,1 hPa 0,0 l/m 0,6 km/h W 5,3 C 9,7 C 0,4 km/h
20.03.2017 16:00 9,4 C 75 % 1009,9 hPa 0,0 l/m 0,0 km/h W 5,2 C 9,4 C 0,0 km/h
20.03.2017 17:00 9,4 C 75 % 1009,7 hPa 0,0 l/m 0,0 km/h N 5,2 C 9,4 C 0,0 km/h
20.03.2017 18:00 8,6 C 77 % 1009,3 hPa 0,0 l/m 0,0 km/h N 4,8 C 8,6 C 0,0 km/h
20.03.2017 19:00 7,8 C 79 % 1009,2 hPa 0,0 l/m 0,0 km/h N 4,4 C 7,8 C 0,0 km/h
20.03.2017 20:00 6,5 C 81 % 1009,4 hPa 0,0 l/m 0,0 km/h N 3,5 C 6,5 C 0,0 km/h
20.03.2017 21:00 6,4 C 83 % 1010,0 hPa 0,0 l/m 0,0 km/h W-NW 3,7 C 6,4 C 0,0 km/h
20.03.2017 22:00 6,5 C 85 % 1010,4 hPa 0,0 l/m 0,0 km/h S-SW 4,2 C 6,5 C 0,0 km/h
20.03.2017 23:00 6,1 C 85 % 1010,9 hPa 0,0 l/m 0,0 km/h S-SW 3,8 C 6,1 C 0,0 km/h
21.03.2017 00:00 5,8 C 85 % 1011,1 hPa 0,0 l/m 0,0 km/h S 3,5 C 5,8 C 0,0 km/h
21.03.2017 01:00 5,8 C 85 % 1011,0 hPa 0,0 l/m 0,0 km/h W-SW 3,5 C 5,8 C 0,0 km/h
21.03.2017 02:00 10,9 C 66 % 1010,2 hPa 308,2 l/m 14,3 km/h SW 4,8 C 6,5 C 7,9 km/h
21.03.2017 03:00 10,6 C 67 % 1010,1 hPa 0,0 l/m 16,8 km/h SW 4,7 C 5,2 C 9,4 km/h
21.03.2017 04:00 10,4 C 69 % 1010,0 hPa 0,0 l/m 5,8 km/h W-SW 5,0 C 10,4 C 3,2 km/h
21.03.2017 05:00 10,4 C 69 % 1009,8 hPa 0,0 l/m 0,0 km/h SW 5,0 C 10,4 C 0,0 km/h
21.03.2017 06:00 9,9 C 71 % 1009,8 hPa 0,0 l/m 0,0 km/h S 4,9 C 9,9 C 0,0 km/h
21.03.2017 07:00 10,3 C 70 % 1009,6 hPa 0,0 l/m 21,4 km/h S-SW 5,1 C 3,2 C 11,9 km/h
21.03.2017 08:00 10,9 C 69 % 1009,8 hPa 0,0 l/m 4,5 km/h S-SW 5,4 C 10,9 C 2,5 km/h
21.03.2017 09:00 12,1 C 67 % 1009,6 hPa 0,0 l/m 18,8 km/h S 6,2 C 6,4 C 10,4 km/h
21.03.2017 10:00 12,0 C 66 % 1009,7 hPa 0,0 l/m 18,1 km/h W-SW 5,8 C 6,5 C 10,1 km/h
21.03.2017 11:00 12,9 C 64 % 1009,7 hPa 0,0 l/m 20,1 km/h SW 6,3 C 7,0 C 11,2 km/h
21.03.2017 12:00 14,1 C 62 % 1009,2 hPa 0,0 l/m 14,9 km/h W-SW 6,9 C 10,1 C 8,3 km/h
21.03.2017 13:00 15,9 C 58 % 1008,5 hPa 0,0 l/m 18,1 km/h W 7,6 C 11,4 C 10,1 km/h
21.03.2017 14:00 14,6 C 58 % 1008,0 hPa 0,0 l/m 15,6 km/h N-NW 6,4 C 10,5 C 8,6 km/h
21.03.2017 15:00 12,9 C 64 % 1007,9 hPa 0,0 l/m 1,3 km/h N 6,3 C 12,9 C 0,7 km/h
21.03.2017 16:00 11,9 C 68 % 1008,4 hPa 0,0 l/m 0,0 km/h O-NO 6,2 C 11,9 C 0,0 km/h
21.03.2017 17:00 10,1 C 78 % 1008,7 hPa 0,0 l/m 0,0 km/h N 6,4 C 10,1 C 0,0 km/h
21.03.2017 18:00 8,6 C 83 % 1009,6 hPa 1,6 l/m 7,1 km/h N 5,9 C 8,1 C 4,0 km/h
21.03.2017 19:00 7,3 C 84 % 1010,7 hPa 1,0 l/m 0,0 km/h N-NO 4,8 C 7,3 C 0,0 km/h
21.03.2017 20:00 6,6 C 85 % 1011,3 hPa 1,0 l/m 0,0 km/h N 4,3 C 6,6 C 0,0 km/h
21.03.2017 21:00 6,2 C 85 % 1011,7 hPa 0,5 l/m 0,0 km/h N-NO 3,9 C 6,2 C 0,0 km/h
21.03.2017 22:00 5,9 C 85 % 1011,6 hPa 0,5 l/m 0,0 km/h N 3,6 C 5,9 C 0,0 km/h
21.03.2017 23:00 5,4 C 85 % 1011,8 hPa 1,0 l/m 0,0 km/h NW 3,1 C 5,4 C 0,0 km/h
22.03.2017 00:00 4,9 C 85 % 1011,6 hPa 1,0 l/m 0,0 km/h NW 2,6 C 4,9 C 0,0 km/h
22.03.2017 01:00 4,7 C 84 % 1011,7 hPa 1,0 l/m 0,0 km/h N 2,2 C 4,7 C 0,0 km/h
22.03.2017 02:00 4,6 C 84 % 1011,5 hPa 1,0 l/m 0,0 km/h N 2,1 C 4,6 C 0,0 km/h
22.03.2017 03:00 4,7 C 84 % 1010,9 hPa 0,0 l/m 0,0 km/h N 2,2 C 4,7 C 0,0 km/h
22.03.2017 04:00 4,5 C 84 % 1010,7 hPa 0,0 l/m 0,0 km/h N 2,0 C 4,5 C 0,0 km/h
22.03.2017 05:00 4,4 C 84 % 1010,8 hPa 0,5 l/m 0,0 km/h N 1,9 C 4,4 C 0,0 km/h
22.03.2017 06:00 4,3 C 84 % 1010,8 hPa 0,5 l/m 0,0 km/h N 1,8 C 4,3 C 0,0 km/h
22.03.2017 07:00 4,2 C 84 % 1010,9 hPa 0,0 l/m 0,0 km/h N 1,7 C 4,2 C 0,0 km/h
22.03.2017 08:00 4,9 C 83 % 1011,0 hPa 0,5 l/m 0,0 km/h N-NW 2,3 C 4,9 C 0,0 km/h
22.03.2017 09:00 5,9 C 84 % 1011,3 hPa 0,0 l/m 0,0 km/h W-NW 3,4 C 5,9 C 0,0 km/h
22.03.2017 10:00 7,0 C 85 % 1011,4 hPa 0,0 l/m 0,0 km/h W-SW 4,7 C 7,0 C 0,0 km/h
22.03.2017 11:00 7,8 C 83 % 1011,4 hPa 0,0 l/m 0,0 km/h W 5,1 C 7,8 C 0,0 km/h
22.03.2017 12:00 8,3 C 80 % 1011,1 hPa 0,0 l/m 0,0 km/h S 5,1 C 8,3 C 0,0 km/h
22.03.2017 13:00 9,1 C 79 % 1010,7 hPa 0,0 l/m 0,0 km/h W-NW 5,7 C 9,1 C 0,0 km/h
22.03.2017 14:00 12,4 C 70 % 1010,6 hPa 0,0 l/m 4,5 km/h W 7,1 C 12,4 C 2,5 km/h
22.03.2017 15:00 9,7 C 74 % 1010,1 hPa 0,0 l/m 0,6 km/h W 5,3 C 9,7 C 0,4 km/h
22.03.2017 16:00 9,4 C 75 % 1009,9 hPa 0,0 l/m 0,0 km/h W 5,2 C 9,4 C 0,0 km/h
22.03.2017 17:00 9,4 C 75 % 1009,7 hPa 0,0 l/m 0,0 km/h N 5,2 C 9,4 C 0,0 km/h
22.03.2017 18:00 8,6 C 77 % 1009,3 hPa 0,0 l/m 0,0 km/h N 4,8 C 8,6 C 0,0 km/h
22.03.2017 19:00 7,8 C 79 % 1009,2 hPa 0,0 l/m 0,0 km/h N 4,4 C 7,8 C 0,0 km/h
22.03.2017 20:00 6,5 C 81 % 1009,4 hPa 0,0 l/m 0,0 km/h N 3,5 C 6,5 C 0,0 km/h
22.03.2017 21:00 6,4 C 83 % 1010,0 hPa 0,0 l/m 0,0 km/h W-NW 3,7 C 6,4 C 0,0 km/h
22.03.2017 22:00 6,5 C 85 % 1010,4 hPa 0,0 l/m 0,0 km/h S-SW 4,2 C 6,5 C 0,0 km/h
22.03.2017 23:00 6,1 C 85 % 1010,9 hPa 0,0 l/m 0,0 km/h S-SW 3,8 C 6,1 C 0,0 km/h
23.03.2017 00:00 5,8 C 85 % 1011,1 hPa 0,0 l/m 0,0 km/h S 3,5 C 5,8 C 0,0 km/h
23.03.2017 01:00 5,8 C 85 % 1011,0 hPa 0,0 l/m 0,0 km/h S 3,5 C 5,8 C 0,0 km/h
23.03.2017 02:00 5,3 C 86 % 1010,8 hPa 0,0 l/m 0,0 km/h O-SO 3,2 C 5,3 C 0,0 km/h
23.03.2017 03:00 5,2 C 85 % 1010,2 hPa 0,0 l/m 0,0 km/h NO 2,9 C 5,2 C 0,0 km/h
23.03.2017 04:00 4,8 C 85 % 1009,7 hPa 0,0 l/m 0,0 km/h NO 2,5 C 4,8 C 0,0 km/h
23.03.2017 05:00 4,1 C 85 % 1010,0 hPa 0,0 l/m 0,0 km/h O-NO 1,8 C 4,1 C 0,0 km/h
23.03.2017 06:00 4,1 C 85 % 1010,0 hPa 0,0 l/m 0,0 km/h O-NO 1,8 C 4,1 C 0,0 km/h
23.03.2017 07:00 4,1 C 84 % 1010,4 hPa 0,0 l/m 0,0 km/h N-NO 1,6 C 4,1 C 0,0 km/h
23.03.2017 08:00 8,2 C 69 % 1010,4 hPa 0,0 l/m 0,0 km/h N-NW 2,9 C 8,2 C 0,0 km/h
23.03.2017 09:00 14,7 C 71 % 1010,4 hPa 0,0 l/m 0,0 km/h W 9,5 C 14,7 C 0,0 km/h
23.03.2017 10:00 16,4 C 62 % 1010,7 hPa 0,0 l/m 0,0 km/h W-NW 9,1 C 16,4 C 0,0 km/h
23.03.2017 11:00 16,4 C 60 % 1010,4 hPa 0,0 l/m 1,9 km/h N 8,6 C 16,4 C 1,1 km/h
23.03.2017 12:00 18,5 C 58 % 1010,2 hPa 0,0 l/m 0,0 km/h W 10,1 C 18,5 C 0,0 km/h
23.03.2017 13:00 20,1 C 54 % 1009,2 hPa 0,0 l/m 1,3 km/h W-NW 10,5 C 20,1 C 0,7 km/h
23.03.2017 14:00 20,8 C 54 % 1008,7 hPa 0,0 l/m 3,9 km/h W 11,1 C 20,8 C 2,2 km/h
23.03.2017 15:00 22,3 C 50 % 1008,0 hPa 0,0 l/m 0,0 km/h N-NO 11,4 C 22,3 C 0,0 km/h
23.03.2017 16:00 23,9 C 42 % 1007,5 hPa 0,0 l/m 0,0 km/h NO 10,2 C 23,9 C 0,0 km/h
23.03.2017 17:00 22,6 C 44 % 1007,7 hPa 0,0 l/m 0,0 km/h NO 9,7 C 22,6 C 0,0 km/h
23.03.2017 18:00 17,9 C 52 % 1008,2 hPa 0,0 l/m 0,0 km/h NO 7,9 C 17,9 C 0,0 km/h
23.03.2017 19:00 14,5 C 63 % 1009,0 hPa 0,0 l/m 0,0 km/h N-NO 7,5 C 14,5 C 0,0 km/h
23.03.2017 20:00 13,7 C 67 % 1009,2 hPa 0,0 l/m 0,0 km/h N 7,7 C 13,7 C 0,0 km/h
23.03.2017 21:00 12,9 C 69 % 1010,1 hPa 0,0 l/m 4,5 km/h O-SO 7,4 C 12,9 C 2,5 km/h
23.03.2017 22:00 12,3 C 72 % 1011,0 hPa 0,0 l/m 0,0 km/h O-SO 7,4 C 12,3 C 0,0 km/h
23.03.2017 23:00 10,7 C 75 % 1012,0 hPa 0,0 l/m 0,0 km/h O-SO 6,5 C 10,7 C 0,0 km/h
24.03.2017 00:00 8,1 C 78 % 1013,1 hPa 0,0 l/m 0,0 km/h O-SO 4,5 C 8,1 C 0,0 km/h
24.03.2017 01:00 7,5 C 83 % 1015,3 hPa 0,0 l/m 3,2 km/h S 4,8 C 7,5 C 1,8 km/h
24.03.2017 02:00 6,7 C 85 % 1016,6 hPa 0,0 l/m 0,0 km/h S-SO 4,4 C 6,7 C 0,0 km/h
24.03.2017 03:00 6,7 C 85 % 1017,0 hPa 0,0 l/m 0,0 km/h S 4,4 C 6,7 C 0,0 km/h
24.03.2017 04:00 6,4 C 85 % 1017,0 hPa 0,0 l/m 0,0 km/h S 4,1 C 6,4 C 0,0 km/h
24.03.2017 05:00 6,3 C 85 % 1017,1 hPa 0,0 l/m 0,0 km/h S-SO 4,0 C 6,3 C 0,0 km/h
24.03.2017 06:00 5,9 C 85 % 1017,3 hPa 0,0 l/m 0,0 km/h S 3,6 C 5,9 C 0,0 km/h
24.03.2017 07:00 5,9 C 85 % 1018,0 hPa 0,0 l/m 0,0 km/h NO 3,6 C 5,9 C 0,0 km/h
24.03.2017 08:00 6,8 C 85 % 1017,5 hPa 0,0 l/m 0,0 km/h W 4,5 C 6,8 C 0,0 km/h
24.03.2017 09:00 8,6 C 85 % 1019,1 hPa 0,0 l/m 0,0 km/h S-SW 6,2 C 8,6 C 0,0 km/h
24.03.2017 10:00 10,2 C 84 % 1019,2 hPa 0,0 l/m 0,0 km/h W 7,6 C 10,2 C 0,0 km/h
24.03.2017 11:00 11,9 C 79 % 1019,5 hPa 0,0 l/m 0,0 km/h NO 8,4 C 11,9 C 0,0 km/h
24.03.2017 12:00 13,5 C 76 % 1020,1 hPa 0,0 l/m 0,0 km/h N 9,4 C 13,5 C 0,0 km/h
24.03.2017 13:00 16,2 C 65 % 1019,7 hPa 0,0 l/m 0,0 km/h N-NO 9,6 C 16,2 C 0,0 km/h
24.03.2017 14:00 15,6 C 62 % 1019,7 hPa 0,0 l/m 0,0 km/h O-SO 8,3 C 15,6 C 0,0 km/h
24.03.2017 15:00 19,1 C 56 % 1019,5 hPa 0,0 l/m 0,0 km/h NO 10,1 C 19,1 C 0,0 km/h
24.03.2017 16:00 17,1 C 59 % 1019,5 hPa 0,0 l/m 0,0 km/h N 9,0 C 17,1 C 0,0 km/h
24.03.2017 17:00 16,3 C 57 % 1019,8 hPa 0,0 l/m 9,7 km/h N-NO 7,8 C 14,7 C 5,4 km/h
24.03.2017 18:00 12,4 C 68 % 1020,1 hPa 0,0 l/m 0,0 km/h N 6,7 C 12,4 C 0,0 km/h
24.03.2017 19:00 10,3 C 73 % 1020,6 hPa 0,0 l/m 0,0 km/h N-NO 5,7 C 10,3 C 0,0 km/h
24.03.2017 20:00 9,9 C 75 % 1021,1 hPa 0,0 l/m 0,0 km/h O-SO 5,7 C 9,9 C 0,0 km/h
24.03.2017 21:00 9,3 C 76 % 1021,4 hPa 0,0 l/m 7,8 km/h O-SO 5,3 C 8,3 C 4,3 km/h
24.03.2017 22:00 7,4 C 80 % 1022,0 hPa 0,0 l/m 0,0 km/h O-SO 4,2 C 7,4 C 0,0 km/h
24.03.2017 23:00 6,1 C 83 % 1022,2 hPa 0,0 l/m 0,0 km/h O-SO 3,4 C 6,1 C 0,0 km/h
25.03.2017 00:00 4,8 C 84 % 1021,8 hPa 0,0 l/m 0,0 km/h O-SO 2,3 C 4,8 C 0,0 km/h
25.03.2017 01:00 4,9 C 85 % 1021,6 hPa 0,0 l/m 0,0 km/h O-SO 2,6 C 4,9 C 0,0 km/h
25.03.2017 02:00 3,9 C 85 % 1021,3 hPa 0,0 l/m 0,0 km/h O-SO 1,6 C 3,9 C 0,0 km/h
25.03.2017 03:00 3,4 C 85 % 1021,0 hPa 0,0 l/m 0,0 km/h O-SO 1,1 C 3,4 C 0,0 km/h
25.03.2017 04:00 2,5 C 86 % 1020,6 hPa 0,0 l/m 0,0 km/h O-SO 0,4 C 2,5 C 0,0 km/h
25.03.2017 05:00 1,6 C 85 % 1020,2 hPa 0,0 l/m 0,0 km/h O-SO -0,6 C 1,6 C 0,0 km/h
25.03.2017 06:00 1,3 C 85 % 1020,2 hPa 0,0 l/m 0,0 km/h O-SO -0,9 C 1,3 C 0,0 km/h
25.03.2017 07:00 1,3 C 85 % 1020,6 hPa 0,0 l/m 1,9 km/h O-SO -0,9 C 1,3 C 1,1 km/h
25.03.2017 08:00 5,2 C 75 % 1020,2 hPa 0,0 l/m 0,0 km/h W-SW 1,1 C 5,2 C 0,0 km/h
25.03.2017 09:00 11,2 C 79 % 1019,7 hPa 0,0 l/m 0,0 km/h W-NW 7,7 C 11,2 C 0,0 km/h
25.03.2017 10:00 15,5 C 65 % 1019,2 hPa 0,0 l/m 0,0 km/h S-SO 8,9 C 15,5 C 0,0 km/h
25.03.2017 11:00 18,4 C 56 % 1018,4 hPa 0,0 l/m 0,0 km/h S-SO 9,5 C 18,4 C 0,0 km/h
25.03.2017 12:00 20,8 C 48 % 1017,3 hPa 0,0 l/m 0,0 km/h S-SO 9,4 C 20,8 C 0,0 km/h
25.03.2017 13:00 22,6 C 45 % 1016,1 hPa 0,0 l/m 0,0 km/h NO 10,1 C 22,6 C 0,0 km/h
25.03.2017 14:00 22,5 C 40 % 1015,1 hPa 0,0 l/m 0,0 km/h O-NO 8,2 C 22,5 C 0,0 km/h
25.03.2017 15:00 25,2 C 36 % 1014,6 hPa 0,0 l/m 0,0 km/h N-NO 9,1 C 25,2 C 0,0 km/h
25.03.2017 16:00 26,7 C 31 % 1014,1 hPa 0,0 l/m 0,0 km/h N 8,2 C 26,7 C 0,0 km/h
25.03.2017 17:00 27,3 C 28 % 1014,0 hPa 0,0 l/m 0,0 km/h N 7,2 C 27,3 C 0,0 km/h
25.03.2017 18:00 23,4 C 30 % 1013,9 hPa 0,0 l/m 0,0 km/h N-NO 4,8 C 23,4 C 0,0 km/h
25.03.2017 19:00 14,8 C 41 % 1014,3 hPa 0,0 l/m 0,0 km/h N 1,7 C 14,8 C 0,0 km/h
25.03.2017 20:00 12,0 C 47 % 1014,7 hPa 0,0 l/m 0,0 km/h N 1,0 C 12,0 C 0,0 km/h
25.03.2017 21:00 11,3 C 49 % 1014,8 hPa 0,0 l/m 0,0 km/h O 1,0 C 11,3 C 0,0 km/h
25.03.2017 22:00 10,1 C 53 % 1015,2 hPa 0,0 l/m 0,6 km/h O 1,0 C 10,1 C 0,4 km/h
25.03.2017 23:00 6,9 C 63 % 1015,7 hPa 0,0 l/m 0,0 km/h O-SO 0,4 C 6,9 C 0,0 km/h
26.03.2017 00:00 5,6 C 68 % 1015,8 hPa 0,0 l/m 0,0 km/h O 0,2 C 5,6 C 0,0 km/h
26.03.2017 01:00 4,3 C 73 % 1015,8 hPa 0,0 l/m 0,0 km/h O-SO -0,1 C 4,3 C 0,0 km/h
26.03.2017 02:00 3,6 C 76 % 1016,3 hPa 0,0 l/m 0,0 km/h NO -0,2 C 3,6 C 0,0 km/h
26.03.2017 03:00 3,4 C 78 % 1016,1 hPa 0,0 l/m 0,0 km/h N-NO -0,1 C 3,4 C 0,0 km/h
26.03.2017 04:00 3,2 C 80 % 1016,4 hPa 0,0 l/m 0,0 km/h O-SO 0,1 C 3,2 C 0,0 km/h
26.03.2017 05:00 3,3 C 80 % 1017,0 hPa 0,0 l/m 5,2 km/h O-SO 0,2 C 3,3 C 2,9 km/h
26.03.2017 06:00 3,2 C 82 % 1017,3 hPa 0,0 l/m 0,0 km/h NO 0,4 C 3,2 C 0,0 km/h
26.03.2017 07:00 1,8 C 81 % 1018,1 hPa 0,0 l/m 0,0 km/h W-NW -1,1 C 1,8 C 0,0 km/h
26.03.2017 08:00 6,2 C 82 % 1018,7 hPa 0,0 l/m 0,0 km/h W-NW 3,4 C 6,2 C 0,0 km/h
26.03.2017 09:00 12,1 C 60 % 1019,1 hPa 0,0 l/m 1,9 km/h N 4,6 C 12,1 C 1,1 km/h
26.03.2017 10:00 13,3 C 56 % 1018,9 hPa 0,0 l/m 0,0 km/h W 4,7 C 13,3 C 0,0 km/h
26.03.2017 11:00 15,6 C 51 % 1018,6 hPa 0,0 l/m 1,9 km/h NW 5,5 C 15,6 C 1,1 km/h
26.03.2017 12:00 17,9 C 47 % 1018,6 hPa 0,0 l/m 0,0 km/h W 6,4 C 17,9 C 0,0 km/h
26.03.2017 13:00 19,0 C 44 % 1018,1 hPa 0,0 l/m 1,9 km/h NW 6,5 C 19,0 C 1,1 km/h
26.03.2017 14:00 19,1 C 42 % 1017,5 hPa 0,0 l/m 2,6 km/h W-NW 5,9 C 19,1 C 1,4 km/h
26.03.2017 15:00 21,2 C 39 % 1017,2 hPa 0,0 l/m 3,2 km/h NW 6,7 C 21,2 C 1,8 km/h
26.03.2017 16:00 21,6 C 36 % 1017,0 hPa 0,0 l/m 3,9 km/h W-NW 5,9 C 21,6 C 2,2 km/h
26.03.2017 17:00 20,5 C 37 % 1017,2 hPa 0,0 l/m 0,0 km/h W-NW 5,3 C 20,5 C 0,0 km/h
26.03.2017 18:00 18,9 C 42 % 1017,2 hPa 0,0 l/m 0,0 km/h W-NW 5,7 C 18,9 C 0,0 km/h
26.03.2017 19:00 12,9 C 50 % 1017,9 hPa 0,0 l/m 0,0 km/h NW 2,7 C 12,9 C 0,0 km/h
26.03.2017 20:00 9,3 C 62 % 1018,1 hPa 0,0 l/m 0,0 km/h O-NO 2,4 C 9,3 C 0,0 km/h
26.03.2017 21:00 7,4 C 71 % 1018,6 hPa 0,0 l/m 0,0 km/h O-SO 2,5 C 7,4 C 0,0 km/h
26.03.2017 22:00 7,9 C 75 % 1019,0 hPa 0,0 l/m 0,0 km/h O-SO 3,7 C 7,9 C 0,0 km/h
26.03.2017 23:00 7,6 C 71 % 1019,1 hPa 0,0 l/m 0,0 km/h O-SO 2,7 C 7,6 C 0,0 km/h
Min-Datum _ 25.03.17 25.03.17 23.03.17 - 20.03.17 - 26.03.17 25.03.17 20.03.17
_ Min-Zeit 06:57 17:57 16:57 - 01:57 - 07:57 06:57 01:57
Minimum _ 1,3 C 28 % 1007,5 hPa - 0,0 km/h - -1,1 C 1,3 C 0,0 km/h
Max-Datum _ 25.03.17 23.03.17 24.03.17 21.03.17 21.03.17 - 23.03.17 25.03.17 21.03.17
_ Max-Zeit 17:57 02:57 23:57 02:57 07:57 - 15:57 17:57 07:57
Maximum _ 27,3 C 86 % 1022,2 hPa 308,2 l/m 21,4 km/h
S-SW
- 11,4 C 27,3 C 11,9 km/h
S-SW
Durchschnitt _ 10,0 C 72 % 1013,6 hPa #321,2 l/m 1,5 km/h N 4,7 C 9,7 C 0,8 km/h
www.sexauwetter.de